Time;durP1;ratioP1;P1;durP2;ratioP2;P2;SDS_P1;SDS_P2;PMS_P1;PMS_P2;Temp;Humidity;BMP_temperature;BMP_pressure;BME280_temperature;BME280_humidity;BME280_pressure;Samples;Min_cycle;Max_cycle;Signal;HPM_P1;HPM_P2
2023/01/11 00:02:15;;;;;;;;;;;2.80;99.90;;;1.99;100.00;95988.47;10420477;28;2386;-72
2023/01/11 00:07:18;;;;;;;;;;;2.90;99.90;;;2.05;100.00;95974.34;10421202;28;2412;-72
2023/01/11 00:12:20;;;;;;;;;;;3.00;99.90;;;2.14;100.00;95973.06;10423403;28;2228;-75
2023/01/11 00:17:23;;;;;;;;;;;3.00;99.90;;;2.25;100.00;95970.75;10422065;28;2325;-74
2023/01/11 00:22:26;;;;;;;;;;;3.10;99.90;;;2.24;100.00;95963.81;10426400;28;1992;-77
2023/01/11 00:27:29;;;;;;;;;;;3.20;99.90;;;2.25;100.00;95965.44;10421746;28;2373;-76
2023/01/11 00:32:31;;;;;;;;;;;3.20;99.90;;;2.07;100.00;95951.06;10419252;28;2318;-75
2023/01/11 00:37:34;;;;;;;;;;;3.20;99.90;;;2.04;100.00;95953.38;10452409;28;2316;-75
2023/01/11 00:47:59;;;;;;;;;;;3.00;99.90;;;1.98;100.00;95940.97;10415140;28;2043;-75
2023/01/11 00:53:02;;;;;;;;;;;3.00;99.90;;;2.00;100.00;95938.91;10411757;28;2365;-72
2023/01/11 00:58:05;;;;;;;;;;;3.00;99.90;;;1.97;100.00;95937.47;10413318;28;2224;-72
2023/01/11 01:03:07;;;;;;;;;;;3.00;99.90;;;2.01;100.00;95938.69;10411449;28;2306;-73
2023/01/11 01:08:10;;;;;;;;;;;3.00;99.90;;;2.05;100.00;95933.78;10413127;28;2220;-73
2023/01/11 01:18:33;;;;;;;;;;;3.10;99.90;;;2.07;100.00;95948.44;10418103;28;2358;-73
2023/01/11 01:23:36;;;;;;;;;;;3.10;99.90;;;2.08;100.00;95960.66;10411053;28;2361;-75
2023/01/11 01:28:39;;;;;;;;;;;3.20;99.90;;;2.07;100.00;95948.44;10410617;28;2047;-75
2023/01/11 01:33:41;;;;;;;;;;;3.00;99.90;;;2.13;100.00;95952.06;10409568;28;2387;-76
2023/01/11 01:38:44;;;;;;;;;;;3.10;99.90;;;2.06;100.00;95946.00;10410821;28;2307;-74
2023/01/11 01:43:47;;;;;;;;;;;3.10;99.90;;;2.03;100.00;95954.38;10410981;28;1961;-73
2023/01/11 01:48:50;;;;;;;;;;;3.10;99.90;;;1.95;100.00;95958.09;10410768;28;2329;-75
2023/01/11 01:53:53;;;;;;;;;;;3.00;99.90;;;2.00;100.00;95931.75;10410726;28;2461;-75
2023/01/11 01:58:55;;;;;;;;;;;3.00;99.90;;;2.06;100.00;95944.16;10409683;28;2288;-72
2023/01/11 02:03:58;;;;;;;;;;;3.10;99.90;;;2.20;100.00;95946.69;10409699;28;2124;-73
2023/01/11 02:09:01;;;;;;;;;;;3.10;99.90;;;2.19;100.00;95945.09;10410651;28;2391;-74
2023/01/11 02:14:04;;;;;;;;;;;3.10;99.90;;;2.13;100.00;95942.25;10411114;28;2330;-73
2023/01/11 02:19:06;;;;;;;;;;;3.20;99.90;;;2.23;100.00;95943.59;10409105;28;2300;-72
2023/01/11 02:24:09;;;;;;;;;;;3.20;99.90;;;2.25;100.00;95945.03;10405812;28;2003;-73
2023/01/11 02:29:12;;;;;;;;;;;3.20;99.90;;;2.24;100.00;95937.28;10405306;28;2290;-74
2023/01/11 02:34:15;;;;;;;;;;;3.30;99.90;;;2.29;100.00;95929.47;10408199;28;2296;-73
2023/01/11 02:39:18;;;;;;;;;;;3.20;99.90;;;2.29;100.00;95924.16;10408861;28;2364;-76
2023/01/11 02:49:41;;;;;;;;;;;3.30;99.90;;;2.37;100.00;95911.44;10406637;28;2331;-74
2023/01/11 02:54:44;;;;;;;;;;;3.30;99.90;;;2.33;100.00;95904.13;10406603;28;2312;-73
2023/01/11 02:59:48;;;;;;;;;;;3.30;99.90;;;2.34;100.00;95892.50;10408388;28;2447;-74
2023/01/11 03:04:51;;;;;;;;;;;3.30;99.90;;;2.30;100.00;95889.47;10407148;28;2288;-74
2023/01/11 03:09:54;;;;;;;;;;;3.30;99.90;;;2.32;100.00;95881.31;10407832;28;2363;-75
2023/01/11 03:14:56;;;;;;;;;;;3.30;99.90;;;2.29;100.00;95876.41;10410667;28;2363;-72
2023/01/11 03:19:59;;;;;;;;;;;3.30;99.90;;;2.34;100.00;95879.22;10433360;28;2339;-75
2023/01/11 03:25:02;;;;;;;;;;;3.40;99.90;;;2.38;100.00;95865.31;10434970;28;2409;-73
2023/01/11 03:30:04;;;;;;;;;;;3.40;99.90;;;2.43;100.00;95859.38;10441119;28;2307;-74
2023/01/11 03:35:07;;;;;;;;;;;3.40;99.90;;;2.54;100.00;95847.19;10409550;28;2354;-73
2023/01/11 03:40:10;;;;;;;;;;;3.50;99.90;;;2.63;100.00;95828.09;10406808;28;2168;-75
2023/01/11 03:45:12;;;;;;;;;;;3.60;99.90;;;2.65;100.00;95827.88;10404734;28;4237;-74
2023/01/11 03:50:15;;;;;;;;;;;3.60;99.90;;;2.70;100.00;95828.84;10406101;28;2296;-74
2023/01/11 03:55:18;;;;;;;;;;;3.60;99.90;;;2.77;100.00;95827.94;10405844;28;2478;-74
2023/01/11 04:00:21;;;;;;;;;;;3.80;99.90;;;2.80;100.00;95816.88;10407926;28;2321;-73
2023/01/11 04:05:23;;;;;;;;;;;3.80;99.90;;;2.89;100.00;95811.03;10407087;28;2372;-73
2023/01/11 04:10:26;;;;;;;;;;;3.80;99.90;;;2.93;100.00;95808.75;10407402;28;2388;-73
2023/01/11 04:15:30;;;;;;;;;;;3.90;99.90;;;2.98;100.00;95806.22;10412574;28;2332;-74
2023/01/11 04:20:33;;;;;;;;;;;3.90;99.90;;;2.99;100.00;95807.84;10404470;28;2258;-73
2023/01/11 04:25:36;;;;;;;;;;;4.00;99.90;;;3.08;100.00;95806.50;10413949;28;2069;-75
2023/01/11 04:30:38;;;;;;;;;;;4.00;99.90;;;3.08;100.00;95801.19;10412945;28;2300;-74
2023/01/11 04:35:42;;;;;;;;;;;4.10;99.90;;;3.15;100.00;95807.22;10413027;28;2258;-73
2023/01/11 04:40:45;;;;;;;;;;;4.10;99.90;;;3.19;100.00;95791.66;10411342;28;2376;-73
2023/01/11 04:45:48;;;;;;;;;;;4.10;99.90;;;3.24;100.00;95786.44;10412668;28;2272;-74
2023/01/11 04:50:51;;;;;;;;;;;4.20;99.90;;;3.34;100.00;95778.72;10412107;28;2059;-73
2023/01/11 04:55:53;;;;;;;;;;;4.30;99.90;;;3.39;100.00;95780.72;10410922;28;2113;-74
2023/01/11 05:00:56;;;;;;;;;;;4.30;99.90;;;3.44;100.00;95780.84;10415381;28;2278;-76
2023/01/11 05:05:59;;;;;;;;;;;4.40;99.90;;;3.49;100.00;95775.63;10411716;28;2331;-76
2023/01/11 05:11:01;;;;;;;;;;;4.40;99.90;;;3.58;100.00;95768.16;10420588;28;2414;-73
2023/01/11 05:16:04;;;;;;;;;;;4.50;99.90;;;3.63;100.00;95765.63;10410523;28;2236;-73
2023/01/11 05:21:07;;;;;;;;;;;4.50;99.90;;;3.63;100.00;95770.94;10411997;28;2284;-73
2023/01/11 05:26:09;;;;;;;;;;;4.60;99.90;;;3.73;100.00;95750.69;10409959;28;2324;-74
2023/01/11 05:31:12;;;;;;;;;;;4.60;99.90;;;3.75;100.00;95753.97;10410363;28;2344;-72
2023/01/11 05:36:15;;;;;;;;;;;4.70;99.90;;;3.85;100.00;95760.53;10407922;28;2341;-73
2023/01/11 05:41:17;;;;;;;;;;;4.70;99.90;;;3.90;100.00;95752.69;10411770;28;2305;-73
2023/01/11 05:46:20;;;;;;;;;;;4.80;99.90;;;3.89;100.00;95762.50;10410660;28;2355;-75
2023/01/11 05:51:23;;;;;;;;;;;4.90;99.90;;;3.94;100.00;95751.97;10410100;28;2307;-75
2023/01/11 05:56:25;;;;;;;;;;;4.90;99.90;;;3.95;100.00;95752.78;10409880;28;2307;-75
2023/01/11 06:01:28;;;;;;;;;;;4.90;99.90;;;4.06;100.00;95757.28;10408815;28;2312;-73
2023/01/11 06:06:31;;;;;;;;;;;5.00;99.90;;;4.03;100.00;95758.56;10408006;28;2286;-75
2023/01/11 06:11:33;;;;;;;;;;;5.00;99.90;;;4.16;100.00;95754.84;10414401;28;2433;-74
2023/01/11 06:16:36;;;;;;;;;;;5.20;99.90;;;4.17;100.00;95750.34;10409214;28;2048;-74
2023/01/11 06:21:39;;;;;;;;;;;5.20;99.90;;;4.19;100.00;95733.09;10408430;28;2322;-74
2023/01/11 06:26:41;;;;;;;;;;;5.30;99.90;;;4.29;100.00;95730.63;10409640;28;2290;-75
2023/01/11 06:31:44;;;;;;;;;;;5.30;99.90;;;4.26;100.00;95733.78;10408752;28;2220;-75
2023/01/11 06:36:47;;;;;;;;;;;5.40;99.90;;;4.26;100.00;95739.09;10407425;28;2327;-75
2023/01/11 06:41:49;;;;;;;;;;;5.30;99.90;;;4.15;100.00;95739.13;10407986;28;2398;-73
2023/01/11 06:46:52;;;;;;;;;;;5.30;99.90;;;4.14;100.00;95746.31;10409247;28;2361;-73
2023/01/11 06:51:55;;;;;;;;;;;5.30;99.90;;;4.19;100.00;95754.38;10406529;28;1980;-73
2023/01/11 06:57:02;;;;;;;;;;;5.30;99.90;;;4.29;100.00;95749.28;10404104;28;2312;-73
2023/01/11 07:02:04;;;;;;;;;;;5.30;99.90;;;4.26;100.00;95755.06;10405821;28;2325;-74
2023/01/11 07:07:07;;;;;;;;;;;5.30;99.90;;;4.34;100.00;95751.22;10403808;28;2268;-74
2023/01/11 07:12:10;;;;;;;;;;;5.40;99.90;;;4.43;100.00;95755.13;10408080;28;2275;-74
2023/01/11 07:17:13;;;;;;;;;;;5.40;99.90;;;4.47;100.00;95752.81;10407710;28;2323;-73
2023/01/11 07:22:15;;;;;;;;;;;5.40;99.90;;;4.51;100.00;95748.63;10407179;28;2016;-73
2023/01/11 07:27:18;;;;;;;;;;;5.50;99.90;;;4.55;100.00;95747.13;10407156;28;2358;-74
2023/01/11 07:32:21;;;;;;;;;;;5.50;99.90;;;4.66;100.00;95740.97;10407140;28;2217;-76
2023/01/11 07:37:25;;;;;;;;;;;5.60;99.90;;;4.78;100.00;95731.06;10407904;28;2429;-74
2023/01/11 07:47:51;;;;;;;;;;;5.70;99.90;;;4.92;100.00;95728.94;10410635;28;2370;-76
2023/01/11 07:52:54;;;;;;;;;;;5.80;99.90;;;5.02;100.00;95733.63;10404765;28;2302;-77
2023/01/11 07:57:57;;;;;;;;;;;6.00;99.90;;;5.17;100.00;95728.56;10411572;28;2336;-75
2023/01/11 08:03:00;;;;;;;;;;;6.00;99.90;;;5.21;100.00;95726.22;10414779;28;2430;-75
2023/01/11 08:08:02;;;;;;;;;;;6.10;99.90;;;5.17;100.00;95717.91;10415012;28;2382;-76
2023/01/11 08:18:28;;;;;;;;;;;6.30;99.90;;;5.27;100.00;95723.41;10418612;28;2323;-74
2023/01/11 08:23:30;;;;;;;;;;;6.40;99.90;;;5.40;100.00;95707.09;10415552;28;2357;-75
2023/01/11 08:28:33;;;;;;;;;;;6.30;99.90;;;5.59;100.00;95696.19;10416191;28;2355;-75
2023/01/11 08:33:36;;;;;;;;;;;6.40;99.90;;;5.72;100.00;95703.84;10414292;28;2305;-75
2023/01/11 08:38:38;;;;;;;;;;;6.60;99.90;;;5.84;100.00;95688.53;10413970;28;2096;-74
2023/01/11 08:43:41;;;;;;;;;;;6.70;99.90;;;5.92;100.00;95690.84;10412623;28;2376;-74
2023/01/11 08:48:45;;;;;;;;;;;6.80;99.90;;;5.93;100.00;95680.97;10414344;28;2354;-73
2023/01/11 08:53:48;;;;;;;;;;;6.90;99.90;;;5.93;100.00;95671.09;10413132;28;2432;-74
2023/01/11 08:58:50;;;;;;;;;;;6.90;99.90;;;6.13;100.00;95678.56;10415207;28;2349;-74
2023/01/11 09:03:53;;;;;;;;;;;7.00;99.90;;;6.20;100.00;95657.03;10411415;28;2399;-74
2023/01/11 09:08:56;;;;;;;;;;;7.10;99.90;;;6.32;100.00;95664.91;10411453;28;2320;-75
2023/01/11 09:13:59;;;;;;;;;;;7.20;99.90;;;6.41;100.00;95661.53;10411862;28;2322;-74
2023/01/11 09:19:01;;;;;;;;;;;7.30;99.90;;;6.75;100.00;95656.03;10413687;28;2335;-74
2023/01/11 09:24:04;;;;;;;;;;;7.50;99.90;;;7.04;100.00;95657.38;10410086;28;2303;-72
2023/01/11 09:29:06;;;;;;;;;;;7.90;99.90;;;7.00;100.00;95658.97;10409731;28;2291;-74
2023/01/11 09:34:12;;;;;;;;;;;;;;;7.02;100.00;95659.50;10410490;28;2419;-75
2023/01/11 09:39:17;;;;;;;;;;;7.90;99.90;;;7.10;100.00;95662.78;10413220;28;2311;-76
2023/01/11 09:44:22;;;;;;;;;;;8.00;99.90;;;7.10;100.00;95654.75;10412460;28;2106;-74
2023/01/11 09:49:26;;;;;;;;;;;8.10;99.90;;;7.10;100.00;95665.44;10409274;28;2053;-73
2023/01/11 09:54:29;;;;;;;;;;;8.10;99.90;;;7.32;100.00;95652.81;10410759;28;2334;-74
2023/01/11 09:59:33;;;;;;;;;;;8.10;99.90;;;7.59;100.00;95658.88;10409527;28;2322;-73
2023/01/11 10:04:38;;;;;;;;;;;8.10;99.90;;;7.83;100.00;95666.53;10410619;28;2309;-75
2023/01/11 10:09:41;;;;;;;;;;;8.50;99.90;;;8.06;100.00;95654.59;10410331;28;2367;-74
2023/01/11 10:15:06;;;;;;;;;;;8.70;99.90;;;8.20;100.00;95662.97;10430258;28;2318;-75
2023/01/11 10:20:33;;;;;;;;;;;8.90;99.90;;;8.26;100.00;95659.25;10409405;28;2280;-74
2023/01/11 10:25:43;;;;;;;;;;;9.00;99.90;;;8.44;100.00;95640.06;10408205;28;2324;-74
2023/01/11 10:31:00;;;;;;;;;;;9.20;99.90;;;8.51;100.00;95637.94;10407763;28;2299;-73
2023/01/11 10:36:13;;;;;;;;;;;9.30;99.90;;;8.47;100.00;95631.53;10409079;28;2387;-74
2023/01/11 10:41:20;;;;;;;;;;;9.40;99.90;;;8.54;100.00;95632.06;10410684;28;2347;-73
2023/01/11 10:46:23;;;;;;;;;;;9.40;99.90;;;8.49;100.00;95629.38;10408746;28;2371;-73
2023/01/11 10:51:28;;;;;;;;;;;9.40;99.90;;;8.59;100.00;95629.41;10408789;28;2379;-75
2023/01/11 10:56:31;;;;;;;;;;;9.40;99.90;;;8.84;100.00;95619.78;10410212;28;2334;-74
2023/01/11 11:01:37;;;;;;;;;;;9.60;99.90;;;9.08;100.00;95604.00;10408742;28;2228;-75
2023/01/11 11:06:39;;;;;;;;;;;10.70;99.90;;;9.35;100.00;95598.34;10410175;28;2396;-74
2023/01/11 11:11:43;;;;;;;;;;;10.10;99.90;;;9.48;100.00;95598.63;10413381;28;2306;-74
2023/01/11 11:16:47;;;;;;;;;;;;;;;9.71;100.00;95594.53;10407059;28;2386;-76
2023/01/11 11:21:51;;;;;;;;;;;10.40;99.90;;;9.72;100.00;95585.41;10411652;28;2326;-75
2023/01/11 11:26:53;;;;;;;;;;;10.50;99.90;;;9.88;100.00;95588.06;10408860;28;2365;-73
2023/01/11 11:31:56;;;;;;;;;;;10.60;99.90;;;9.83;100.00;95583.50;10406262;28;2686;-76
2023/01/11 11:37:00;;;;;;;;;;;;;;;10.15;100.00;95561.63;10408757;28;2281;-75
2023/01/11 11:42:04;;;;;;;;;;;;;;;10.68;100.00;95558.41;10410170;28;2374;-74
2023/01/11 11:47:06;;;;;;;;;;;11.30;99.90;;;10.72;100.00;95554.91;10405979;28;2572;-75
2023/01/11 11:52:09;;;;;;;;;;;11.30;99.90;;;10.64;100.00;95550.13;10408138;28;2257;-74
2023/01/11 11:57:12;;;;;;;;;;;11.40;99.90;;;10.71;100.00;95539.06;10408292;28;2324;-75
2023/01/11 12:02:15;;;;;;;;;;;11.50;99.90;;;10.52;100.00;95541.59;10406893;28;2324;-76
2023/01/11 12:07:18;;;;;;;;;;;11.50;99.90;;;10.61;100.00;95528.34;10405226;28;2299;-74
2023/01/11 12:12:21;;;;;;;;;;;11.50;99.90;;;10.68;100.00;95520.78;10413732;28;2355;-74
2023/01/11 12:17:28;;;;;;;;;;;11.50;99.90;;;10.66;100.00;95515.69;10406169;28;2320;-74
2023/01/11 12:22:30;;;;;;;;;;;11.50;99.90;;;10.93;100.00;95525.16;10406668;28;2024;-74
2023/01/11 12:27:33;;;;;;;;;;;11.70;99.90;;;10.93;100.00;95522.47;10403446;28;2396;-73
2023/01/11 12:32:36;;;;;;;;;;;11.80;99.90;;;10.92;100.00;95520.88;10404959;28;2279;-73
2023/01/11 12:37:39;;;;;;;;;;;11.80;99.90;;;10.87;100.00;95510.16;10405878;28;2307;-75
2023/01/11 12:42:42;;;;;;;;;;;11.80;99.90;;;10.74;100.00;95506.22;10409297;28;2346;-75
2023/01/11 12:47:45;;;;;;;;;;;11.70;99.90;;;10.75;100.00;95497.06;10413470;28;2375;-74
2023/01/11 12:52:47;;;;;;;;;;;11.60;99.90;;;10.64;100.00;95500.94;10413975;28;2363;-74
2023/01/11 12:57:59;;;;;;;;;;;11.60;99.90;;;10.52;100.00;95495.91;10413341;28;2268;-74
2023/01/11 13:03:02;;;;;;;;;;;11.50;99.90;;;10.49;100.00;95499.94;10411785;28;2024;-74
2023/01/11 13:08:05;;;;;;;;;;;11.40;99.90;;;10.49;100.00;95493.75;10412778;28;2705;-74
2023/01/11 13:13:08;;;;;;;;;;;11.40;99.90;;;10.53;100.00;95482.19;10409981;28;2335;-73
2023/01/11 13:18:10;;;;;;;;;;;11.40;99.90;;;10.48;100.00;95486.78;10417218;28;2314;-74
2023/01/11 13:23:13;;;;;;;;;;;11.50;99.90;;;10.51;100.00;95467.44;10412249;28;2463;-74
2023/01/11 13:28:16;;;;;;;;;;;11.50;99.90;;;10.58;100.00;95469.81;10411635;28;2324;-74
2023/01/11 13:33:25;;;;;;;;;;;11.50;99.90;;;10.51;100.00;95478.97;10411107;28;2032;-75
2023/01/11 13:38:28;;;;;;;;;;;11.50;99.90;;;10.64;100.00;95480.22;10410617;28;2429;-75
2023/01/11 13:43:31;;;;;;;;;;;11.50;99.90;;;10.71;100.00;95490.66;10415892;28;2355;-74
2023/01/11 13:48:33;;;;;;;;;;;11.60;99.90;;;10.80;100.00;95489.75;10414882;28;2364;-74
2023/01/11 13:53:36;;;;;;;;;;;11.70;99.90;;;10.76;100.00;95499.50;10412884;28;2118;-73
2023/01/11 13:58:39;;;;;;;;;;;11.70;99.90;;;10.79;100.00;95488.16;10412587;28;2290;-73
2023/01/11 14:03:42;;;;;;;;;;;11.70;99.90;;;10.68;100.00;95502.75;10409077;28;2355;-74
2023/01/11 14:08:45;;;;;;;;;;;11.70;99.90;;;10.52;100.00;95514.72;10409263;28;1972;-74
2023/01/11 14:19:08;;;;;;;;;;;11.50;99.90;;;9.89;100.00;95519.88;10408549;28;2298;-73
2023/01/11 14:24:10;;;;;;;;;;;11.10;99.90;;;9.52;100.00;95533.66;10409847;28;2495;-74
2023/01/11 14:29:14;;;;;;;;;;;10.80;99.90;;;9.24;100.00;95543.13;10408538;28;2360;-73
2023/01/11 14:34:16;;;;;;;;;;;10.50;99.90;;;8.92;100.00;95545.03;10408401;28;2271;-74
2023/01/11 14:39:20;;;;;;;;;;;10.20;99.90;;;8.75;100.00;95559.75;10411321;28;2298;-73
2023/01/11 14:44:22;;;;;;;;;;;10.00;99.90;;;8.49;100.00;95551.69;10408214;28;2358;-74
2023/01/11 14:49:25;;;;;;;;;;;9.80;99.90;;;8.33;100.00;95569.56;10409504;28;2321;-73
2023/01/11 14:54:28;;;;;;;;;;;9.50;99.90;;;8.15;100.00;95579.97;10406378;28;2308;-74
2023/01/11 14:59:31;;;;;;;;;;;9.30;99.90;;;8.06;100.00;95577.78;10407377;28;2351;-74
2023/01/11 15:04:33;;;;;;;;;;;9.20;99.90;;;7.92;100.00;95582.00;10407676;28;2420;-75
2023/01/11 15:09:36;;;;;;;;;;;9.00;99.90;;;7.81;100.00;95585.69;10406041;28;2241;-76
2023/01/11 15:14:39;;;;;;;;;;;8.90;99.90;;;7.74;100.00;95590.47;10413161;28;2279;-74
2023/01/11 15:19:42;;;;;;;;;;;8.80;99.90;;;7.68;100.00;95594.19;10408685;28;2276;-74
2023/01/11 15:24:44;;;;;;;;;;;8.80;99.90;;;7.63;100.00;95607.53;10406285;28;2271;-75
2023/01/11 15:29:48;;;;;;;;;;;8.70;99.90;;;7.61;100.00;95609.66;10407581;28;2056;-75
2023/01/11 15:34:50;;;;;;;;;;;8.70;99.90;;;7.55;100.00;95620.34;10412378;28;2242;-76
2023/01/11 15:39:53;;;;;;;;;;;8.60;99.90;;;7.53;100.00;95621.66;10411576;28;2354;-76
2023/01/11 15:44:56;;;;;;;;;;;8.80;99.90;;;7.46;100.00;95616.53;10407434;28;2441;-74
2023/01/11 15:49:59;;;;;;;;;;;8.50;99.90;;;7.50;100.00;95631.00;10408674;28;2014;-74
2023/01/11 15:55:02;;;;;;;;;;;8.50;99.90;;;7.48;100.00;95645.69;10405007;28;2353;-74
2023/01/11 16:00:05;;;;;;;;;;;8.50;99.90;;;7.37;100.00;95655.50;10407996;28;2248;-75
2023/01/11 16:05:08;;;;;;;;;;;8.50;99.90;;;7.34;100.00;95656.03;10405486;28;2299;-76
2023/01/11 16:10:11;;;;;;;;;;;8.40;99.90;;;7.25;100.00;95670.91;10403016;28;2060;-77
2023/01/11 16:15:15;;;;;;;;;;;8.30;99.90;;;7.23;100.00;95665.03;10410543;28;2333;-75
2023/01/11 16:20:18;;;;;;;;;;;8.20;99.90;;;7.15;100.00;95679.66;10413173;28;2330;-78
2023/01/11 16:25:21;;;;;;;;;;;8.20;99.90;;;7.08;100.00;95688.97;10420287;28;2347;-78
2023/01/11 16:30:23;;;;;;;;;;;8.20;99.90;;;7.08;100.00;95695.09;10415254;28;2088;-75
2023/01/11 16:35:26;;;;;;;;;;;8.10;99.90;;;7.05;100.00;95703.63;10413051;28;2307;-77
2023/01/11 16:40:29;;;;;;;;;;;8.10;99.90;;;7.02;100.00;95706.81;10412482;28;2410;-75
2023/01/11 16:45:31;;;;;;;;;;;8.00;99.90;;;6.99;100.00;95713.44;10407291;28;2000;-74
2023/01/11 16:50:34;;;;;;;;;;;8.00;99.90;;;6.98;100.00;95727.88;10411767;28;2078;-77
2023/01/11 16:55:37;;;;;;;;;;;8.00;99.90;;;7.01;100.00;95721.22;10408057;28;2269;-77
2023/01/11 17:00:40;;;;;;;;;;;8.00;99.90;;;6.93;100.00;95737.69;10409951;28;2295;-75
2023/01/11 17:05:42;;;;;;;;;;;8.00;99.90;;;6.93;100.00;95746.53;10408495;28;2342;-76
2023/01/11 17:10:46;;;;;;;;;;;7.90;99.90;;;6.94;100.00;95745.50;10415328;28;2386;-76
2023/01/11 17:15:48;;;;;;;;;;;7.90;99.90;;;6.96;100.00;95750.56;10407910;28;2339;-75
2023/01/11 17:20:51;;;;;;;;;;;7.90;99.90;;;6.92;100.00;95750.25;10408554;28;2335;-75
2023/01/11 17:25:54;;;;;;;;;;;7.90;99.90;;;6.91;100.00;95769.22;10407082;28;2349;-74
2023/01/11 17:30:58;;;;;;;;;;;7.90;99.90;;;6.92;100.00;95771.63;10409155;28;2271;-76
2023/01/11 17:36:00;;;;;;;;;;;7.90;99.90;;;6.89;100.00;95788.19;10425994;28;2397;-75
2023/01/11 17:45:11;;;;;;;;;;;7.90;99.90;;;6.83;100.00;95789.19;10411471;28;2313;-74
2023/01/11 17:46:26;;;;;;;;;;;7.90;99.90;;;6.94;100.00;95806.94;10411324;28;2355;-76
2023/01/11 17:51:30;;;;;;;;;;;7.90;99.90;;;6.86;100.00;95811.91;10436087;28;2430;-75
2023/01/11 17:56:32;;;;;;;;;;;7.90;99.90;;;6.84;100.00;95817.50;10445596;28;2408;-76
2023/01/11 18:01:35;;;;;;;;;;;7.80;99.90;;;6.77;100.00;95822.22;10440729;28;1856;-74
2023/01/11 18:06:38;;;;;;;;;;;7.80;99.90;;;6.74;100.00;95838.75;10444812;28;2329;-77
2023/01/11 18:11:41;;;;;;;;;;;7.90;99.90;;;6.66;100.00;95826.63;10444851;28;2301;-75
2023/01/11 18:16:44;;;;;;;;;;;7.70;99.90;;;6.47;100.00;95839.47;10439240;28;1825;-75
2023/01/11 18:21:47;;;;;;;;;;;7.50;99.90;;;6.44;100.00;95847.16;10438001;28;1907;-76
2023/01/11 18:26:50;;;;;;;;;;;7.40;99.90;;;6.35;100.00;95852.09;10442038;28;2349;-76
2023/01/11 18:31:52;;;;;;;;;;;7.30;99.90;;;6.29;100.00;95858.41;10435239;28;2348;-74
2023/01/11 18:36:55;;;;;;;;;;;7.30;99.90;;;6.30;100.00;95865.41;10434587;28;1834;-76
2023/01/11 18:42:10;;;;;;;;;;;7.30;99.90;;;6.24;100.00;95869.03;10444181;28;1901;-74
2023/01/11 18:47:13;;;;;;;;;;;7.20;99.90;;;6.22;100.00;95879.13;10438279;28;2419;-76
2023/01/11 18:52:16;;;;;;;;;;;7.30;99.90;;;6.21;100.00;95877.50;10435514;28;2292;-75
2023/01/11 18:57:23;;;;;;;;;;;7.60;99.90;;;6.18;100.00;95884.16;10443998;28;2351;-74
2023/01/11 19:02:25;;;;;;;;;;;7.20;99.90;;;6.10;100.00;95883.75;10443236;28;2296;-75
2023/01/11 19:07:28;;;;;;;;;;;7.20;99.90;;;6.12;100.00;95885.13;10438896;28;2488;-76
2023/01/11 19:12:31;;;;;;;;;;;7.20;99.90;;;6.05;100.00;95883.69;10435746;28;2441;-76
2023/01/11 19:17:33;;;;;;;;;;;7.20;99.90;;;5.95;100.00;95890.44;10438641;28;2300;-74
2023/01/11 19:22:36;;;;;;;;;;;7.10;99.90;;;5.95;100.00;95901.13;10434616;28;2280;-75
2023/01/11 19:27:39;;;;;;;;;;;7.00;99.90;;;5.96;100.00;95905.41;10430844;28;2662;-74
2023/01/11 19:32:41;;;;;;;;;;;7.00;99.90;;;5.94;100.00;95926.19;10432026;28;2272;-74
2023/01/11 19:37:44;;;;;;;;;;;7.00;99.90;;;6.00;100.00;95928.94;10433768;28;2354;-76
2023/01/11 19:42:47;;;;;;;;;;;7.00;99.90;;;6.07;100.00;95934.94;10436016;28;2305;-75
2023/01/11 19:47:50;;;;;;;;;;;6.00;99.90;;;6.08;100.00;95924.00;10432448;28;2399;-75
2023/01/11 19:52:53;;;;;;;;;;;7.10;99.90;;;6.03;100.00;95939.13;10442309;28;2351;-75
2023/01/11 19:57:55;;;;;;;;;;;7.10;99.90;;;6.00;100.00;95944.97;10451877;28;1880;-74
2023/01/11 20:03:03;;;;;;;;;;;7.10;99.90;;;6.03;100.00;95949.81;10443505;28;2324;-74
2023/01/11 20:08:06;;;;;;;;;;;7.10;99.90;;;6.03;100.00;95960.47;10432851;28;2465;-75
2023/01/11 20:13:09;;;;;;;;;;;7.10;99.90;;;6.02;100.00;95959.66;10443589;28;1921;-74
2023/01/11 20:18:11;;;;;;;;;;;7.10;99.90;;;6.01;100.00;95965.25;10438789;28;2544;-74
2023/01/11 20:23:14;;;;;;;;;;;7.10;99.90;;;6.01;100.00;95962.59;10441866;28;2351;-75
2023/01/11 20:28:19;;;;;;;;;;;7.10;99.90;;;6.02;100.00;95981.00;10445611;28;2280;-74
2023/01/11 20:33:21;;;;;;;;;;;7.10;99.90;;;6.06;100.00;95986.69;10436157;28;2370;-73
2023/01/11 20:38:24;;;;;;;;;;;7.10;99.90;;;6.16;100.00;95989.53;10431299;28;1841;-75
2023/01/11 20:43:27;;;;;;;;;;;7.20;99.90;;;6.12;100.00;95996.41;10441702;28;2288;-74
2023/01/11 20:48:30;;;;;;;;;;;7.20;99.90;;;6.09;100.00;96004.88;10438886;28;2501;-78
2023/01/11 20:53:32;;;;;;;;;;;7.20;99.90;;;6.21;100.00;95995.78;10453047;28;1910;-77
2023/01/11 20:58:35;;;;;;;;;;;7.20;99.90;;;6.11;100.00;95997.47;10465479;28;1923;-77
2023/01/11 21:03:38;;;;;;;;;;;7.20;99.90;;;6.07;100.00;95993.66;10459041;28;2430;-79
2023/01/11 21:08:41;;;;;;;;;;;7.20;99.90;;;6.05;100.00;95999.25;10445363;28;2308;-79
2023/01/11 21:13:44;;;;;;;;;;;7.20;99.90;;;6.03;100.00;96005.84;10443552;28;2327;-75
2023/01/11 21:18:46;;;;;;;;;;;7.10;99.90;;;6.02;100.00;96001.56;10413641;28;2320;-74
2023/01/11 21:23:49;;;;;;;;;;;7.10;99.90;;;6.00;100.00;95982.31;10411465;28;2299;-76
2023/01/11 21:28:52;;;;;;;;;;;7.10;99.90;;;5.90;100.00;95994.38;10408587;28;2462;-77
2023/01/11 21:33:54;;;;;;;;;;;7.30;99.90;;;5.86;100.00;95995.91;10410549;28;2155;-74
2023/01/11 21:38:57;;;;;;;;;;;7.00;99.90;;;5.88;100.00;96007.16;10427125;28;2091;-76
2023/01/11 21:44:00;;;;;;;;;;;7.00;99.90;;;5.87;100.00;96004.72;10412957;28;2349;-76
2023/01/11 21:49:02;;;;;;;;;;;7.00;99.90;;;5.86;100.00;96025.28;10412333;28;2327;-76
2023/01/11 21:54:05;;;;;;;;;;;7.00;99.90;;;5.86;100.00;96030.59;10412016;28;2079;-76
2023/01/11 21:59:08;;;;;;;;;;;7.00;99.90;;;5.99;100.00;96039.41;10415184;28;2158;-76
2023/01/11 22:04:10;;;;;;;;;;;7.10;99.90;;;6.06;100.00;96050.75;10410266;28;2383;-76
2023/01/11 22:09:13;;;;;;;;;;;7.10;99.90;;;6.07;100.00;96052.38;10416269;28;2318;-75
2023/01/11 22:14:16;;;;;;;;;;;7.10;99.90;;;6.10;100.00;96052.69;10410260;28;2208;-74
2023/01/11 22:19:19;;;;;;;;;;;7.10;99.90;;;6.10;100.00;96057.22;10410404;28;2240;-76
2023/01/11 22:24:21;;;;;;;;;;;7.20;99.90;;;6.10;100.00;96063.34;10411694;28;2357;-76
2023/01/11 22:29:25;;;;;;;;;;;7.20;99.90;;;6.10;100.00;96081.22;10413091;28;2320;-77
2023/01/11 22:34:33;;;;;;;;;;;7.20;99.90;;;6.17;100.00;96073.88;10411135;28;2219;-77
2023/01/11 22:39:36;;;;;;;;;;;7.20;99.90;;;6.17;100.00;96074.72;10415893;28;2317;-75
2023/01/11 22:44:39;;;;;;;;;;;7.20;99.90;;;6.07;100.00;96074.53;10414344;28;2292;-76
2023/01/11 22:49:41;;;;;;;;;;;7.20;99.90;;;5.89;100.00;96094.16;10410561;28;2353;-76
2023/01/11 22:54:44;;;;;;;;;;;7.10;99.90;;;5.80;100.00;96084.91;10409215;28;2290;-77
2023/01/11 22:59:47;;;;;;;;;;;6.90;99.90;;;5.78;100.00;96097.66;10410342;28;2275;-76
2023/01/11 23:04:49;;;;;;;;;;;6.80;99.90;;;5.63;100.00;96089.34;10408935;28;2032;-78
2023/01/11 23:09:52;;;;;;;;;;;6.70;99.90;;;5.53;100.00;96089.09;10412593;28;2534;-76
2023/01/11 23:14:56;;;;;;;;;;;;;;;5.27;100.00;96091.22;10409051;28;2353;-74
2023/01/11 23:19:59;;;;;;;;;;;;;;;5.05;100.00;96101.63;10408625;28;2299;-77
2023/01/11 23:25:02;;;;;;;;;;;;;;;4.95;100.00;96113.91;10408241;28;2042;-77
2023/01/11 23:30:06;;;;;;;;;;;;;;;4.82;100.00;96118.41;10408069;28;2072;-77
2023/01/11 23:35:09;;;;;;;;;;;;;;;4.75;100.00;96120.34;10407373;28;2294;-76
2023/01/11 23:40:12;;;;;;;;;;;;;;;4.85;100.00;96120.63;10407879;28;2284;-76
2023/01/11 23:45:15;;;;;;;;;;;;;;;4.94;100.00;96128.25;10411515;28;1960;-75
2023/01/11 23:50:18;;;;;;;;;;;;;;;4.95;100.00;96122.69;10405298;28;2545;-75
2023/01/11 23:55:21;;;;;;;;;;;;;;;4.99;100.00;96120.41;10404562;28;2691;-79
